Time;durP1;ratioP1;P1;durP2;ratioP2;P2;SDS_P1;SDS_P2;PMS_P1;PMS_P2;Temp;Humidity;BMP_temperature;BMP_pressure;BME280_temperature;BME280_humidity;BME280_pressure;Samples;Min_cycle;Max_cycle;Signal;HPM_P1;HPM_P2
2022/06/26 00:01:05;;;;;;;17.30;7.60;;;;;;;19.37;41.98;98852.19;105951;1276;98455;-68
2022/06/26 00:03:36;;;;;;;17.00;8.10;;;;;;;19.32;42.11;98852.73;105953;1278;111245;-69
2022/06/26 00:06:06;;;;;;;19.20;7.50;;;;;;;19.25;42.23;98847.92;105964;1276;96355;-67
2022/06/26 00:08:36;;;;;;;21.60;7.90;;;;;;;19.20;42.33;98854.98;106000;1277;108636;-68
2022/06/26 00:11:05;;;;;;;19.30;8.20;;;;;;;19.14;42.27;98853.13;105981;1277;97959;-67
2022/06/26 00:13:35;;;;;;;21.40;8.30;;;;;;;19.09;42.49;98858.77;105926;1277;97755;-67
2022/06/26 00:16:05;;;;;;;22.50;8.40;;;;;;;19.05;42.53;98867.23;105865;1278;111804;-69
2022/06/26 00:18:36;;;;;;;18.00;7.80;;;;;;;19.01;42.66;98863.48;105956;1277;97966;-68
2022/06/26 00:21:08;;;;;;;19.30;8.00;;;;;;;18.98;42.65;98863.73;105969;1278;108382;-68
2022/06/26 00:23:36;;;;;;;20.70;8.40;;;;;;;18.93;42.85;98863.50;105987;1278;97956;-69
2022/06/26 00:26:07;;;;;;;16.60;7.30;;;;;;;18.89;42.93;98861.27;105960;1277;97891;-71
2022/06/26 00:28:35;;;;;;;19.20;8.20;;;;;;;18.84;42.99;98858.89;105948;1277;111435;-68
2022/06/26 00:31:04;;;;;;;18.40;7.20;;;;;;;18.80;43.03;98860.42;105970;1277;97938;-68
2022/06/26 00:33:32;;;;;;;17.90;7.40;;;;;;;18.77;43.25;98859.67;105898;1278;108140;-68
2022/06/26 00:36:00;;;;;;;19.20;7.80;;;;;;;18.74;43.16;98861.27;105859;1278;97889;-67
2022/06/26 00:38:28;;;;;;;19.00;8.00;;;;;;;18.69;43.35;98861.95;105969;1277;97861;-66
2022/06/26 00:40:56;;;;;;;18.10;7.90;;;;;;;18.65;43.46;98866.36;105978;1277;112024;-67
2022/06/26 00:43:28;;;;;;;19.80;8.30;;;;;;;18.61;43.47;98870.20;105885;1277;97910;-67
2022/06/26 00:45:56;;;;;;;18.10;7.80;;;;;;;18.56;43.80;98869.83;105939;1278;107809;-69
2022/06/26 00:48:24;;;;;;;18.70;7.90;;;;;;;18.53;43.59;98869.79;105976;1278;97849;-69
2022/06/26 00:50:53;;;;;;;16.00;7.20;;;;;;;18.48;43.78;98868.76;106024;1276;97842;-67
2022/06/26 00:53:23;;;;;;;17.90;7.20;;;;;;;18.41;44.09;98866.92;105949;1277;112076;-67
2022/06/26 00:55:55;;;;;;;19.80;8.30;;;;;;;18.36;44.15;98869.54;105956;1277;98590;-68
2022/06/26 00:58:24;;;;;;;20.40;7.40;;;;;;;18.29;44.18;98869.34;105982;1277;108399;-67
2022/06/26 01:00:52;;;;;;;20.00;7.60;;;;;;;18.23;44.35;98867.63;105998;1277;97895;-69
2022/06/26 01:03:21;;;;;;;20.50;7.90;;;;;;;18.18;44.38;98867.63;105979;1277;97867;-68
2022/06/26 01:05:54;;;;;;;17.90;7.60;;;;;;;18.12;44.44;98867.70;105896;1278;111981;-67
2022/06/26 01:08:22;;;;;;;18.00;8.10;;;;;;;18.08;44.67;98866.59;105959;1277;97962;-68
2022/06/26 01:10:53;;;;;;;18.70;7.70;;;;;;;18.02;44.65;98868.96;105928;1277;108372;-67
2022/06/26 01:13:23;;;;;;;16.00;7.30;;;;;;;17.97;44.85;98871.64;105851;1278;97966;-67
2022/06/26 01:15:53;;;;;;;20.50;8.20;;;;;;;17.92;44.99;98871.16;105885;1278;96319;-68
2022/06/26 01:18:23;;;;;;;20.30;7.40;;;;;;;17.88;45.03;98867.75;105986;1276;112099;-69
2022/06/26 01:20:55;;;;;;;18.20;7.50;;;;;;;17.84;45.19;98869.02;105955;1278;97896;-67
2022/06/26 01:23:23;;;;;;;17.80;8.00;;;;;;;17.80;45.06;98864.42;105840;1278;109009;-67
2022/06/26 01:25:53;;;;;;;19.20;8.30;;;;;;;17.76;45.23;98867.44;105953;1278;98059;-66
2022/06/26 01:28:21;;;;;;;19.60;8.20;;;;;;;17.72;45.26;98868.77;106001;1277;98052;-67
2022/06/26 01:30:51;;;;;;;19.70;7.70;;;;;;;17.67;45.55;98872.45;105979;1276;111822;-67
2022/06/26 01:33:22;;;;;;;18.60;8.00;;;;;;;17.63;45.49;98874.12;105955;1277;97925;-67
2022/06/26 01:35:52;;;;;;;15.30;7.60;;;;;;;17.60;45.47;98880.76;105886;1278;108395;-68
2022/06/26 01:38:24;;;;;;;17.40;7.30;;;;;;;17.56;45.51;98875.41;105920;1277;97867;-68
2022/06/26 01:40:55;;;;;;;19.30;8.00;;;;;;;17.53;45.79;98874.82;105980;1278;97883;-65
2022/06/26 01:43:30;;;;;;;17.70;8.10;;;;;;;17.51;45.86;98878.67;105960;1277;111876;-68
2022/06/26 01:46:01;;;;;;;21.10;8.60;;;;;;;17.49;45.95;98881.60;105979;1277;99257;-68
2022/06/26 01:48:33;;;;;;;22.60;9.10;;;;;;;17.46;45.96;98882.55;105957;1277;107812;-68
2022/06/26 01:51:04;;;;;;;18.10;7.70;;;;;;;17.44;46.11;98883.48;105995;1276;97924;-68
2022/06/26 01:53:36;;;;;;;18.00;8.20;;;;;;;17.42;46.18;98881.52;105982;1277;97887;-68
2022/06/26 01:56:06;;;;;;;18.70;8.70;;;;;;;17.40;46.26;98877.95;106012;1277;111434;-68
2022/06/26 01:58:37;;;;;;;18.10;7.10;;;;;;;17.39;46.46;98879.32;105973;1277;97990;-68
2022/06/26 02:01:08;;;;;;;20.20;7.70;;;;;;;17.36;46.53;98879.06;105968;1278;107771;-67
2022/06/26 02:03:38;;;;;;;18.50;8.00;;;;;;;17.32;46.69;98877.34;105956;1277;97824;-68
2022/06/26 02:06:06;;;;;;;17.80;7.50;;;;;;;17.28;46.79;98876.35;105939;1277;97847;-68
2022/06/26 02:08:35;;;;;;;17.90;8.10;;;;;;;17.23;46.64;98877.39;105965;1277;112262;-69
2022/06/26 02:13:54;;;;;;;18.80;7.90;;;;;;;17.10;47.03;98878.52;105904;1277;108389;-67
2022/06/26 02:16:30;;;;;;;19.20;7.60;;;;;;;17.04;47.09;98880.77;105924;1277;95347;-67
2022/06/26 02:19:00;;;;;;;18.20;7.30;;;;;;;17.00;47.19;98880.13;105986;1277;97892;-67
2022/06/26 02:21:29;;;;;;;22.10;7.90;;;;;;;16.96;47.20;98877.61;105974;1278;111631;-68
2022/06/26 02:24:01;;;;;;;19.50;8.00;;;;;;;16.93;47.37;98878.82;106008;1277;97891;-69
2022/06/26 02:26:31;;;;;;;19.90;7.20;;;;;;;16.91;47.58;98880.78;105966;1277;107752;-68
2022/06/26 02:28:59;;;;;;;18.70;7.70;;;;;;;16.88;47.45;98882.71;105914;1277;98532;-68
2022/06/26 02:31:32;;;;;;;22.50;8.20;;;;;;;16.86;47.60;98885.22;105893;1277;95276;-67
2022/06/26 02:34:00;;;;;;;18.30;8.30;;;;;;;16.85;47.77;98886.29;105881;1276;112725;-69
2022/06/26 02:36:28;;;;;;;18.20;8.20;;;;;;;16.83;47.79;98888.08;105935;1277;98015;-69
2022/06/26 02:38:57;;;;;;;19.40;8.10;;;;;;;16.81;47.94;98887.33;105949;1277;108397;-68
2022/06/26 02:41:26;;;;;;;19.10;8.30;;;;;;;16.80;47.97;98886.85;105978;1277;97919;-68
2022/06/26 02:43:58;;;;;;;17.90;7.80;;;;;;;16.80;48.06;98888.33;105971;1276;97764;-67
2022/06/26 02:46:28;;;;;;;19.40;7.10;;;;;;;16.78;48.05;98888.71;105917;1277;110744;-68
2022/06/26 02:48:57;;;;;;;17.80;7.50;;;;;;;16.78;48.05;98893.78;105948;1276;97832;-67
2022/06/26 02:51:26;;;;;;;16.80;7.50;;;;;;;16.75;48.31;98891.68;105892;1277;108397;-67
2022/06/26 02:53:55;;;;;;;18.00;7.40;;;;;;;16.74;48.26;98893.63;105925;1277;96317;-67
2022/06/26 02:56:25;;;;;;;19.10;7.40;;;;;;;16.74;48.43;98893.48;105969;1277;97969;-67
2022/06/26 02:58:55;;;;;;;16.50;7.20;;;;;;;16.73;48.49;98897.16;106021;1277;111861;-67
2022/06/26 03:01:23;;;;;;;17.40;7.00;;;;;;;16.71;48.50;98898.59;105985;1277;97970;-69
2022/06/26 03:03:53;;;;;;;17.20;7.20;;;;;;;16.69;48.71;98898.79;105969;1276;108178;-68
2022/06/26 03:06:23;;;;;;;15.80;7.00;;;;;;;16.65;48.69;98896.11;105973;1276;97947;-67
2022/06/26 03:08:51;;;;;;;17.80;7.00;;;;;;;16.62;48.81;98895.20;106032;1277;96361;-68
2022/06/26 03:11:19;;;;;;;19.30;7.10;;;;;;;16.60;48.90;98900.77;106008;1277;112049;-68
2022/06/26 03:13:48;;;;;;;17.00;7.30;;;;;;;16.58;48.92;98906.34;106009;1276;97885;-68
2022/06/26 03:16:17;;;;;;;17.20;7.40;;;;;;;16.56;49.23;98907.80;105955;1276;108647;-68
2022/06/26 03:18:46;;;;;;;18.10;7.30;;;;;;;16.55;49.17;98913.03;105922;1277;97971;-66
2022/06/26 03:21:17;;;;;;;16.60;7.50;;;;;;;16.55;49.26;98913.60;105894;1277;97894;-67
2022/06/26 03:24:03;;;;;;;18.00;7.90;;;;;;;16.55;49.38;98916.61;105851;1277;112021;-67
2022/06/26 03:26:38;;;;;;;15.90;7.40;;;;;;;16.56;49.63;98914.23;105904;1277;97929;-67
2022/06/26 03:29:09;;;;;;;17.80;7.50;;;;;;;16.57;49.57;98916.29;105947;1276;107524;-67
2022/06/26 03:31:39;;;;;;;16.70;7.40;;;;;;;16.58;49.58;98916.54;105954;1276;97834;-68
2022/06/26 03:34:10;;;;;;;17.00;7.90;;;;;;;16.59;49.74;98918.42;105926;1277;98013;-66
2022/06/26 03:36:37;;;;;;;17.00;7.10;;;;;;;16.60;49.95;98923.51;105922;1277;111595;-69
2022/06/26 03:39:06;;;;;;;18.70;7.40;;;;;;;16.61;49.87;98921.77;106038;1277;97801;-66
2022/06/26 03:41:35;;;;;;;17.90;7.50;;;;;;;16.63;50.00;98925.52;106017;1277;106548;-67
2022/06/26 03:44:06;;;;;;;17.00;7.40;;;;;;;16.65;50.06;98928.20;105967;1276;95303;-68
2022/06/26 03:46:35;;;;;;;18.20;7.30;;;;;;;16.67;50.14;98928.16;104164;1276;2437796;-68
2022/06/26 03:49:03;;;;;;;17.60;7.50;;;;;;;16.70;50.32;98928.56;105977;1276;97887;-67
2022/06/26 03:51:32;;;;;;;17.20;6.90;;;;;;;16.73;50.40;98929.90;105994;1276;97874;-67
2022/06/26 03:54:00;;;;;;;14.40;6.60;;;;;;;16.76;50.51;98930.27;105990;1276;108360;-67
2022/06/26 03:56:29;;;;;;;16.40;6.90;;;;;;;16.81;50.69;98934.23;105982;1277;95295;-68
2022/06/26 03:58:57;;;;;;;20.60;7.20;;;;;;;16.85;50.70;98936.19;105956;1276;95285;-67
2022/06/26 04:01:25;;;;;;;15.50;6.40;;;;;;;16.90;50.76;98936.66;105983;1276;112043;-67
2022/06/26 04:03:53;;;;;;;16.90;6.40;;;;;;;16.94;50.74;98935.06;105944;1276;97874;-68
2022/06/26 04:06:25;;;;;;;16.90;6.90;;;;;;;16.99;50.96;98932.83;105944;1276;108868;-67
2022/06/26 04:08:53;;;;;;;18.80;6.90;;;;;;;17.05;50.94;98936.58;105931;1276;98001;-67
2022/06/26 04:11:23;;;;;;;19.50;7.10;;;;;;;17.10;51.09;98936.61;106017;1277;96629;-68
2022/06/26 04:13:51;;;;;;;16.30;6.60;;;;;;;17.15;51.03;98936.60;105997;1277;112411;-67
2022/06/26 04:16:19;;;;;;;15.70;6.70;;;;;;;17.21;51.20;98937.48;105952;1276;97855;-67
2022/06/26 04:18:50;;;;;;;15.00;6.30;;;;;;;17.25;51.03;98936.98;105934;1276;108400;-67
2022/06/26 04:21:21;;;;;;;16.40;7.20;;;;;;;17.31;51.28;98937.54;105974;1276;97935;-66
2022/06/26 04:23:48;;;;;;;16.90;7.00;;;;;;;17.36;51.14;98940.56;106117;1276;95375;-66
2022/06/26 04:26:19;;;;;;;18.40;6.40;;;;;;;17.41;51.29;98933.60;106048;1276;112000;-68
2022/06/26 04:28:50;;;;;;;18.10;7.30;;;;;;;17.47;51.22;98934.85;106062;1276;98038;-67
2022/06/26 04:31:18;;;;;;;18.90;7.20;;;;;;;17.52;51.36;98934.77;106066;1277;108538;-66
2022/06/26 04:33:48;;;;;;;19.30;6.90;;;;;;;17.58;51.48;98937.46;106019;1276;97915;-68
2022/06/26 04:36:16;;;;;;;15.60;6.70;;;;;;;17.63;51.48;98938.35;105982;1276;95193;-67
2022/06/26 04:38:46;;;;;;;15.30;6.50;;;;;;;17.68;51.48;98940.11;105927;1277;111420;-67
2022/06/26 04:44:08;;;;;;;22.60;6.80;;;;;;;17.79;51.78;98946.67;105961;1277;108610;-70
2022/06/26 04:46:40;;;;;;;15.00;6.60;;;;;;;17.85;51.69;98949.30;105994;1277;98433;-68
2022/06/26 04:49:10;;;;;;;17.00;6.80;;;;;;;17.91;51.73;98955.40;105959;1277;96271;-67
2022/06/26 04:51:40;;;;;;;16.00;6.50;;;;;;;17.95;51.65;98953.11;105954;1277;110365;-67
2022/06/26 04:54:10;;;;;;;15.90;6.40;;;;;;;18.01;51.74;98950.36;105958;1277;96591;-69
2022/06/26 04:56:46;;;;;;;14.60;6.40;;;;;;;18.07;51.92;98951.23;105919;1277;108365;-68
2022/06/26 04:59:14;;;;;;;15.90;6.60;;;;;;;18.11;52.06;98953.23;105941;1276;97977;-69
2022/06/26 05:01:42;;;;;;;20.40;7.60;;;;;;;18.17;52.13;98961.23;105991;1276;97839;-68
2022/06/26 05:04:12;;;;;;;16.10;6.80;;;;;;;18.22;52.02;98956.79;105997;1276;112042;-72
2022/06/26 05:06:40;;;;;;;15.20;5.90;;;;;;;18.27;52.03;98959.09;105970;1276;97952;-68
2022/06/26 05:09:11;;;;;;;14.40;6.00;;;;;;;18.32;52.23;98962.40;105961;1276;107329;-69
2022/06/26 05:11:40;;;;;;;16.90;6.00;;;;;;;18.37;52.20;98959.88;105969;1276;97902;-68
2022/06/26 05:14:10;;;;;;;14.70;7.10;;;;;;;18.41;52.14;98957.58;105914;1277;97953;-68
2022/06/26 05:16:41;;;;;;;14.40;6.50;;;;;;;18.48;52.12;98966.27;105939;1276;110400;-67
2022/06/26 05:19:08;;;;;;;16.50;5.90;;;;;;;18.52;52.19;98967.02;105926;1278;97900;-68
2022/06/26 05:21:37;;;;;;;14.10;5.80;;;;;;;18.58;52.34;98969.67;105898;1276;108449;-74
2022/06/26 05:24:08;;;;;;;14.10;6.10;;;;;;;18.64;52.54;98976.94;105900;1277;96691;-73
2022/06/26 05:26:36;;;;;;;15.10;6.30;;;;;;;18.69;52.41;98971.11;105913;1277;97951;-65
2022/06/26 05:29:04;;;;;;;14.30;6.70;;;;;;;18.75;52.55;98970.18;105963;1277;111329;-64
2022/06/26 05:31:36;;;;;;;15.10;6.40;;;;;;;18.82;52.58;98971.77;105902;1277;97912;-63
2022/06/26 05:34:05;;;;;;;15.50;5.80;;;;;;;18.87;52.64;98972.73;105881;1276;107991;-63
2022/06/26 05:36:33;;;;;;;13.90;6.20;;;;;;;18.95;52.78;98977.14;105854;1277;98459;-65
2022/06/26 05:39:01;;;;;;;17.40;6.30;;;;;;;19.04;52.88;98980.88;105863;1276;97959;-65
2022/06/26 05:41:31;;;;;;;20.20;6.30;;;;;;;19.15;52.98;98981.27;105942;1277;111928;-65
2022/06/26 05:44:01;;;;;;;15.60;6.10;;;;;;;19.29;52.92;98981.77;106020;1277;97941;-64
2022/06/26 05:46:28;;;;;;;13.50;6.10;;;;;;;19.43;52.86;98984.14;105971;1277;108403;-64
2022/06/26 05:48:59;;;;;;;13.80;5.60;;;;;;;19.58;52.94;98986.12;105909;1277;95417;-66
2022/06/26 05:51:29;;;;;;;18.10;6.60;;;;;;;19.74;52.96;98986.91;106011;1277;97893;-63
2022/06/26 05:53:57;;;;;;;15.40;6.50;;;;;;;19.90;52.93;98986.52;105981;1277;112129;-64
2022/06/26 05:56:27;;;;;;;14.60;6.10;;;;;;;20.03;52.96;98982.30;105936;1277;97955;-65
2022/06/26 05:58:55;;;;;;;16.30;6.60;;;;;;;20.16;53.02;98985.60;105934;1276;108139;-65
2022/06/26 06:01:23;;;;;;;17.90;5.80;;;;;;;20.27;53.11;98987.98;105969;1276;97910;-64
2022/06/26 06:03:50;;;;;;;11.90;5.80;;;;;;;20.38;52.97;98984.34;105875;1276;97917;-64
2022/06/26 06:06:21;;;;;;;14.50;5.90;;;;;;;20.50;53.09;98985.98;105845;1277;112177;-66
2022/06/26 06:08:49;;;;;;;12.30;5.60;;;;;;;20.64;52.99;98988.16;105815;1276;97995;-63
2022/06/26 06:11:21;;;;;;;11.70;5.30;;;;;;;20.79;52.95;98987.04;105831;1276;109097;-65
2022/06/26 06:13:49;;;;;;;13.20;5.20;;;;;;;20.94;53.12;98988.98;105844;1276;97876;-64
2022/06/26 06:16:18;;;;;;;15.80;6.00;;;;;;;21.08;52.89;98992.46;105979;1276;97003;-64
2022/06/26 06:18:48;;;;;;;13.70;5.50;;;;;;;21.23;52.95;98993.93;105900;1277;112747;-64
2022/06/26 06:21:18;;;;;;;12.30;5.20;;;;;;;21.40;52.99;98995.05;105843;1277;95277;-64
2022/06/26 06:23:48;;;;;;;13.80;5.50;;;;;;;21.56;53.15;98996.56;105780;1277;108562;-64
2022/06/26 06:26:18;;;;;;;16.10;5.50;;;;;;;21.73;52.93;98995.29;105833;1276;98534;-64
2022/06/26 06:28:50;;;;;;;12.10;4.70;;;;;;;21.90;53.02;98999.20;105981;1277;97859;-65
2022/06/26 06:31:18;;;;;;;17.00;6.10;;;;;;;22.08;52.87;98993.81;105818;1277;112066;-64
2022/06/26 06:33:49;;;;;;;13.10;4.90;;;;;;;22.25;52.81;98999.15;105855;1277;97895;-64
2022/06/26 06:36:19;;;;;;;12.30;5.30;;;;;;;22.41;52.76;99000.90;105854;1276;108441;-65
2022/06/26 06:38:47;;;;;;;12.20;4.80;;;;;;;22.60;52.96;99001.86;105825;1276;97999;-64
2022/06/26 06:41:17;;;;;;;14.00;5.70;;;;;;;22.78;52.73;99004.67;105846;1276;97876;-65
2022/06/26 06:43:47;;;;;;;10.40;4.60;;;;;;;22.97;52.94;98998.52;105877;1276;111965;-64
2022/06/26 06:46:15;;;;;;;16.00;5.70;;;;;;;23.18;52.73;99006.09;105875;1276;97969;-65
2022/06/26 06:48:43;;;;;;;12.50;4.90;;;;;;;23.39;52.58;99007.75;105857;1276;108521;-65
2022/06/26 06:51:11;;;;;;;11.40;5.00;;;;;;;23.60;52.53;99010.36;105837;1277;97934;-64
2022/06/26 06:53:41;;;;;;;10.90;4.70;;;;;;;23.79;52.41;99015.14;105880;1277;97889;-64
2022/06/26 06:56:10;;;;;;;11.70;5.00;;;;;;;23.98;52.55;99007.11;105940;1277;110888;-64
2022/06/26 06:58:39;;;;;;;19.40;5.80;;;;;;;24.21;52.53;99015.97;105886;1277;96727;-62
2022/06/26 07:01:07;;;;;;;11.00;4.80;;;;;;;24.43;52.37;99012.67;105850;1277;108156;-64
2022/06/26 07:03:36;;;;;;;11.90;4.50;;;;;;;24.66;52.24;99011.88;105802;1277;95277;-65
2022/06/26 07:06:04;;;;;;;13.40;5.40;;;;;;;24.94;52.16;99007.98;105914;1277;96979;-66
2022/06/26 07:08:34;;;;;;;9.80;4.60;;;;;;;25.24;52.11;99003.57;105868;1277;112046;-64
2022/06/26 07:11:02;;;;;;;18.90;5.20;;;;;;;25.54;52.17;99004.29;105883;1276;98138;-65
2022/06/26 07:13:34;;;;;;;12.10;5.00;;;;;;;25.87;51.92;99004.86;105859;1276;108321;-64
2022/06/26 07:16:03;;;;;;;9.60;4.70;;;;;;;26.20;51.74;99008.20;105851;1276;95318;-65
2022/06/26 07:18:32;;;;;;;11.50;4.30;;;;;;;26.52;51.78;99007.81;105863;1276;97972;-65
2022/06/26 07:21:01;;;;;;;12.40;5.20;;;;;;;26.82;51.71;99008.88;105766;1278;111941;-66
2022/06/26 07:23:30;;;;;;;14.30;5.60;;;;;;;27.14;51.46;99008.59;105795;1277;98002;-66
2022/06/26 07:26:03;;;;;;;14.50;5.70;;;;;;;27.45;51.00;99013.42;105829;1277;107866;-67
2022/06/26 07:28:33;;;;;;;19.00;5.70;;;;;;;27.77;50.93;99012.85;105788;1276;95381;-64
2022/06/26 07:31:05;;;;;;;16.30;5.00;;;;;;;28.13;51.01;99012.86;105910;1277;97832;-65
2022/06/26 07:36:22;;;;;;;14.30;5.30;;;;;;;28.85;50.45;99014.09;105914;1276;97734;-66
2022/06/26 07:38:50;;;;;;;17.20;6.50;;;;;;;29.36;50.18;99010.88;105844;1276;108290;-66
2022/06/26 07:41:22;;;;;;;12.70;4.40;;;;;;;29.97;49.94;99014.08;105854;1276;95346;-66
2022/06/26 07:43:57;;;;;;;12.80;5.00;;;;;;;30.70;49.29;99016.30;105872;1277;97989;-72
2022/06/26 07:46:25;;;;;;;13.60;4.50;;;;;;;31.52;48.71;99016.04;105725;1276;112021;-65
2022/06/26 07:48:55;;;;;;;14.00;4.40;;;;;;;32.34;48.32;99017.15;106139;1276;97542;-65
2022/06/26 07:51:24;;;;;;;12.10;4.10;;;;;;;33.00;48.05;99016.95;105862;1276;108357;-67
2022/06/26 07:53:52;;;;;;;11.00;4.50;;;;;;;33.75;47.52;99016.40;105854;1276;97899;-68
2022/06/26 07:56:22;;;;;;;15.50;4.40;;;;;;;34.73;47.04;99022.05;105779;1276;97848;-66
2022/06/26 07:58:53;;;;;;;10.00;5.10;;;;;;;35.57;46.95;99022.52;105846;1276;111756;-65
2022/06/26 08:01:25;;;;;;;10.90;4.70;;;;;;;36.36;46.19;99024.81;106104;1276;97889;-69
2022/06/26 08:03:55;;;;;;;25.50;6.00;;;;;;;36.99;45.81;99025.61;105949;1276;105776;-68
2022/06/26 08:06:24;;;;;;;11.30;4.50;;;;;;;37.68;45.61;99024.92;105860;1276;98089;-69
2022/06/26 08:08:56;;;;;;;11.00;5.10;;;;;;;38.24;44.84;99023.83;105866;1276;97933;-68
2022/06/26 08:11:25;;;;;;;15.30;4.70;;;;;;;38.45;44.25;99020.09;105889;1276;112016;-68
2022/06/26 08:13:56;;;;;;;10.00;4.60;;;;;;;38.55;43.81;99024.48;105783;1276;97502;-68
2022/06/26 08:16:24;;;;;;;10.30;4.10;;;;;;;38.72;43.16;99024.82;105746;1277;108165;-67
2022/06/26 08:18:53;;;;;;;11.90;4.40;;;;;;;38.89;42.40;99027.98;105906;1276;95318;-68
2022/06/26 08:24:13;;;;;;;12.00;4.30;;;;;;;39.26;41.46;99033.30;105969;1276;111437;-69
2022/06/26 08:26:43;;;;;;;6.20;4.10;;;;;;;39.54;41.16;99036.19;105891;1276;98401;-70
2022/06/26 08:29:11;;;;;;;12.90;4.00;;;;;;;39.85;40.49;99037.26;105767;1276;108376;-70
2022/06/26 08:31:41;;;;;;;7.60;4.30;;;;;;;40.12;39.90;99046.36;105805;1276;97881;-71
2022/06/26 08:34:09;;;;;;;12.30;4.20;;;;;;;40.09;39.22;99045.64;105837;1276;97919;-69
2022/06/26 08:36:39;;;;;;;10.50;4.80;;;;;;;39.99;38.80;99041.50;105835;1276;111367;-70
2022/06/26 08:39:10;;;;;;;10.00;3.60;;;;;;;39.93;38.40;99046.52;105820;1276;97875;-69
2022/06/26 08:41:43;;;;;;;6.00;3.50;;;;;;;40.06;37.96;99042.75;105839;1276;107839;-70
2022/06/26 08:44:14;;;;;;;7.80;3.50;;;;;;;40.08;37.54;99043.89;105845;1276;97985;-70
2022/06/26 08:46:46;;;;;;;6.60;3.50;;;;;;;40.19;36.82;99049.39;105877;1276;96361;-70
2022/06/26 08:49:20;;;;;;;9.10;3.50;;;;;;;40.24;36.69;99049.20;105819;1276;111278;-69
2022/06/26 08:51:54;;;;;;;7.50;3.40;;;;;;;40.44;36.06;99045.10;105867;1276;98677;-70
2022/06/26 08:54:26;;;;;;;8.40;3.20;;;;;;;40.56;35.69;99042.96;105887;1276;107723;-70
2022/06/26 08:56:54;;;;;;;14.20;4.20;;;;;;;40.23;35.05;99047.15;105846;1276;95247;-69
2022/06/26 08:59:22;;;;;;;6.10;3.40;;;;;;;39.92;34.93;99040.06;105857;1276;97848;-69
2022/06/26 09:01:50;;;;;;;9.80;3.50;;;;;;;39.87;34.54;99044.73;105849;1276;111120;-70
2022/06/26 09:04:18;;;;;;;8.10;3.40;;;;;;;39.81;34.08;99043.56;105953;1276;95896;-71
2022/06/26 09:06:49;;;;;;;5.90;3.30;;;;;;;39.78;33.51;99040.62;105860;1276;107720;-70
2022/06/26 09:09:22;;;;;;;10.10;3.30;;;;;;;39.76;33.31;99039.97;105841;1276;98022;-70
2022/06/26 09:11:55;;;;;;;6.20;2.90;;;;;;;39.58;33.16;99040.34;105874;1276;99493;-70
2022/06/26 09:14:27;;;;;;;8.80;3.80;;;;;;;39.47;32.68;99038.48;105856;1276;111120;-70
2022/06/26 09:16:58;;;;;;;9.50;3.30;;;;;;;39.19;32.30;99034.02;105879;1276;97986;-69
2022/06/26 09:19:36;;;;;;;8.00;3.80;;;;;;;39.01;32.19;99032.81;105853;1276;106299;-70
2022/06/26 09:22:08;;;;;;;12.00;3.50;;;;;;;38.95;32.16;99027.00;105849;1276;97917;-71
2022/06/26 09:24:40;;;;;;;14.90;3.50;;;;;;;38.86;31.69;99028.52;105865;1277;97841;-71
2022/06/26 09:27:15;;;;;;;5.20;2.90;;;;;;;38.76;31.70;99028.64;105868;1276;111325;-71
2022/06/26 09:29:53;;;;;;;11.20;3.50;;;;;;;38.67;31.26;99031.56;105860;1276;97736;-69
2022/06/26 09:32:27;;;;;;;9.50;3.00;;;;;;;38.41;30.95;99027.96;105941;1276;109155;-70
2022/06/26 09:34:57;;;;;;;11.20;3.20;;;;;;;38.18;30.98;99032.56;105853;1276;97995;-69
2022/06/26 09:37:34;;;;;;;9.20;3.30;;;;;;;38.05;30.36;99031.05;105857;1278;97963;-70
2022/06/26 09:40:23;;;;;;;6.70;3.00;;;;;;;37.77;30.32;99029.67;105858;1274;112173;-70
2022/06/26 09:42:53;;;;;;;;;;;;;;;37.69;30.12;99026.08;105951;1276;97979;-70
2022/06/26 09:45:21;;;;;;;10.00;3.00;;;;;;;37.48;29.86;99028.60;105897;1276;107556;-70
2022/06/26 09:47:53;;;;;;;9.70;3.40;;;;;;;37.13;29.78;99029.39;105855;1276;95408;-70
2022/06/26 09:50:20;;;;;;;8.60;3.20;;;;;;;36.95;29.79;99030.01;105891;1276;97830;-71
2022/06/26 09:52:52;;;;;;;10.00;3.50;;;;;;;36.75;29.60;99031.29;105908;1276;111359;-70
2022/06/26 09:55:22;;;;;;;12.90;3.10;;;;;;;36.59;29.47;99032.04;105891;1276;97844;-69
2022/06/26 09:57:53;;;;;;;8.70;3.20;;;;;;;36.44;29.29;99035.91;105895;1276;108113;-70
2022/06/26 10:00:21;;;;;;;11.70;3.70;;;;;;;36.33;29.25;99038.06;105903;1276;98926;-69
2022/06/26 10:08:29;;;;;;;8.40;3.20;;;;;;;35.69;28.81;99034.80;106045;1276;98375;-70
2022/06/26 10:11:02;;;;;;;8.00;3.30;;;;;;;35.40;28.80;99032.64;105874;1276;107750;-71
2022/06/26 10:13:40;;;;;;;8.50;3.00;;;;;;;35.20;28.77;99034.31;105890;1276;98615;-70
2022/06/26 10:16:27;;;;;;;7.10;3.00;;;;;;;35.07;28.70;99026.45;105888;1276;95928;-71
2022/06/26 10:19:20;;;;;;;5.60;2.90;;;;;;;34.78;28.31;99030.45;105903;1276;111370;-70
2022/06/26 10:21:52;;;;;;;7.40;3.00;;;;;;;34.36;28.38;99026.12;105896;1276;98387;-68
2022/06/26 10:24:21;;;;;;;6.60;3.00;;;;;;;34.13;28.38;99023.88;105923;1276;108343;-69
2022/06/26 10:26:58;;;;;;;6.00;2.70;;;;;;;33.85;28.12;99023.81;105845;1276;97886;-70
2022/06/26 10:30:05;;;;;;;6.40;3.20;;;;;;;33.55;28.02;99029.56;105986;1276;97884;-70
2022/06/26 10:32:33;;;;;;;7.30;2.90;;;;;;;33.32;28.32;99027.81;105797;1276;111507;-68
2022/06/26 10:35:05;;;;;;;6.40;2.90;;;;;;;33.19;28.27;99033.60;105839;1276;98006;-69
2022/06/26 10:37:49;;;;;;;6.30;2.40;;;;;;;33.05;28.26;99030.01;105905;1276;108666;-71
2022/06/26 10:43:16;;;;;;;6.80;3.30;;;;;;;32.75;28.13;99020.70;105936;1276;97941;-67
2022/06/26 10:45:43;;;;;;;6.30;3.00;;;;;;;32.65;28.28;99023.19;105879;1276;110427;-67
2022/06/26 10:48:23;;;;;;;9.50;3.70;;;;;;;32.58;27.98;99011.73;105920;1276;95858;-71
2022/06/26 10:51:01;;;;;;;7.20;3.00;;;;;;;32.46;28.19;99021.22;105909;1276;107833;-70
2022/06/26 10:53:39;;;;;;;7.70;3.00;;;;;;;32.36;28.39;99020.89;105908;1276;97976;-70
2022/06/26 10:56:08;;;;;;;3.80;2.70;;;;;;;32.25;28.44;99025.20;105947;1276;97909;-70
2022/06/26 10:58:45;;;;;;;6.20;2.80;;;;;;;32.18;28.43;99017.34;105965;1276;111470;-70
2022/06/26 11:01:17;;;;;;;8.40;3.20;;;;;;;32.12;28.37;99017.18;106020;1276;98568;-74
2022/06/26 11:03:45;;;;;;;6.30;3.10;;;;;;;32.02;28.75;99015.20;106003;1276;107480;-72
2022/06/26 11:06:16;;;;;;;7.20;3.10;;;;;;;31.95;28.55;99010.17;106002;1276;97956;-71
2022/06/26 11:08:50;;;;;;;8.90;3.40;;;;;;;31.88;28.70;99007.96;106009;1276;97965;-71
2022/06/26 11:11:25;;;;;;;6.60;3.10;;;;;;;31.80;28.68;99011.48;105899;1276;111229;-70
2022/06/26 11:13:57;;;;;;;11.70;3.80;;;;;;;31.75;28.65;99011.14;105890;1276;97953;-72
2022/06/26 11:16:43;;;;;;;7.80;3.00;;;;;;;31.67;28.86;99010.29;105947;1276;107866;-71
2022/06/26 11:20:46;;;;;;;9.10;3.20;;;;;;;31.60;28.79;99016.83;105868;1278;98047;-70
2022/06/26 11:22:20;;;;;;;8.60;3.20;;;;;;;31.55;28.93;99009.01;105763;1276;95229;-71
2022/06/26 11:25:15;;;;;;;5.30;2.90;;;;;;;31.53;28.85;99009.26;105846;1276;111394;-67
2022/06/26 11:27:52;;;;;;;5.20;2.80;;;;;;;31.50;28.81;99009.52;105937;1276;98442;-71
2022/06/26 11:30:22;;;;;;;6.60;2.60;;;;;;;31.49;29.11;99010.62;105796;1276;107585;-70
2022/06/26 11:32:50;;;;;;;5.50;2.70;;;;;;;31.49;29.07;99008.26;105811;1276;96001;-71
2022/06/26 11:35:25;;;;;;;6.60;2.70;;;;;;;31.50;29.23;99006.13;105859;1276;97877;-70
2022/06/26 11:37:53;;;;;;;7.60;3.00;;;;;;;31.50;29.32;99008.76;105821;1276;110309;-73
2022/06/26 11:40:22;;;;;;;5.50;3.00;;;;;;;31.52;29.24;99006.88;105773;1276;98301;-73
2022/06/26 11:42:56;;;;;;;4.80;2.90;;;;;;;31.55;29.33;99004.83;105946;1276;107801;-74
2022/06/26 11:45:34;;;;;;;11.80;3.40;;;;;;;31.53;29.49;99008.05;105927;1276;95231;-71
2022/06/26 11:48:08;;;;;;;6.10;2.70;;;;;;;31.50;29.52;99008.87;105781;1276;95947;-70
2022/06/26 11:50:39;;;;;;;6.70;2.80;;;;;;;31.49;29.48;99009.58;105830;1276;112179;-71
2022/06/26 11:53:07;;;;;;;4.60;2.90;;;;;;;31.48;29.52;99011.16;105818;1276;98353;-70